Time,TemperatureF,DewpointF,PressureIn,WindDirection,WindDirectionDegrees,WindSpeedMPH,WindSpeedGustMPH,Humidity,HourlyPrecipIn,Conditions,Clouds,dailyrainin,SolarRadiationWatts/m^2,SoftwareType,DateUTC
2013-09-26 00:22:00,56.0,37.0,29.75,West,280,22.0,30.0,49,0.00,,,0.00,0.000000,,2013-09-26 07:22:00,
2013-09-26 00:32:00,56.0,37.0,29.75,West,280,22.0,30.0,49,0.00,,,0.00,0.000000,,2013-09-26 07:32:00,
2013-09-26 00:42:00,56.0,37.0,29.75,West,280,22.0,30.0,49,0.00,,,0.00,0.000000,,2013-09-26 07:42:00,
2013-09-26 00:53:00,56.0,37.0,29.75,West,280,22.0,30.0,49,0.00,,,0.00,0.000000,,2013-09-26 07:53:00,
2013-09-26 01:22:00,53.0,34.0,29.75,West,273,21.0,31.0,49,0.00,,,0.00,0.000000,,2013-09-26 08:22:00,
2013-09-26 01:32:00,53.0,34.0,29.75,West,273,21.0,31.0,49,0.00,,,0.00,0.000000,,2013-09-26 08:32:00,
2013-09-26 01:42:00,53.0,34.0,29.75,West,273,21.0,31.0,49,0.00,,,0.00,0.000000,,2013-09-26 08:42:00,
2013-09-26 01:52:00,53.0,34.0,29.75,West,273,21.0,31.0,49,0.00,,,0.00,0.000000,,2013-09-26 08:52:00,
2013-09-26 02:22:00,52.0,34.0,29.76,West,275,22.0,33.0,51,0.00,,,0.00,0.000000,,2013-09-26 09:22:00,
2013-09-26 02:33:00,52.0,34.0,29.76,West,275,22.0,33.0,51,0.00,,,0.00,0.000000,,2013-09-26 09:33:00,
2013-09-26 02:43:00,52.0,34.0,29.76,West,275,22.0,33.0,51,0.00,,,0.00,0.000000,,2013-09-26 09:43:00,
2013-09-26 02:53:00,52.0,34.0,29.76,West,275,22.0,33.0,51,0.00,,,0.00,0.000000,,2013-09-26 09:53:00,
2013-09-26 03:23:00,52.0,37.0,29.76,West,268,17.0,32.0,57,0.00,,,0.00,0.000000,,2013-09-26 10:23:00,
2013-09-26 03:32:00,52.0,37.0,29.76,West,268,17.0,32.0,57,0.00,,,0.00,0.000000,,2013-09-26 10:32:00,
2013-09-26 03:42:00,52.0,37.0,29.76,West,268,17.0,32.0,57,0.00,,,0.00,0.000000,,2013-09-26 10:42:00,
2013-09-26 03:53:00,52.0,37.0,29.76,West,268,17.0,32.0,57,0.00,,,0.00,0.000000,,2013-09-26 10:53:00,
2013-09-26 04:22:00,51.0,38.0,29.77,West,268,16.0,32.0,61,0.00,,,0.00,0.000000,,2013-09-26 11:22:00,
2013-09-26 04:33:00,51.0,38.0,29.77,West,268,16.0,32.0,61,0.00,,,0.00,0.000000,,2013-09-26 11:33:00,
2013-09-26 04:42:00,51.0,38.0,29.77,West,268,16.0,32.0,61,0.00,,,0.00,0.000000,,2013-09-26 11:42:00,
2013-09-26 04:52:00,51.0,38.0,29.77,West,268,16.0,32.0,61,0.00,,,0.00,0.000000,,2013-09-26 11:52:00,
2013-09-26 05:22:00,50.0,38.0,29.76,West,267,17.0,27.0,62,0.00,,,0.00,0.000000,,2013-09-26 12:22:00,
2013-09-26 05:32:00,50.0,38.0,29.76,West,267,17.0,27.0,62,0.00,,,0.00,0.000000,,2013-09-26 12:32:00,
2013-09-26 05:42:00,50.0,38.0,29.76,West,267,17.0,27.0,62,0.00,,,0.00,0.000000,,2013-09-26 12:42:00,
2013-09-26 05:52:00,50.0,38.0,29.76,West,267,17.0,27.0,62,0.00,,,0.00,0.000000,,2013-09-26 12:52:00,
2013-09-26 06:22:00,48.0,36.0,29.76,West,268,19.0,31.0,64,0.00,,,0.00,0.000000,,2013-09-26 13:22:00,
2013-09-26 06:32:00,48.0,36.0,29.76,West,268,19.0,31.0,64,0.00,,,0.00,0.000000,,2013-09-26 13:32:00,
2013-09-26 06:42:00,48.0,36.0,29.76,West,268,19.0,31.0,64,0.00,,,0.00,0.000000,,2013-09-26 13:42:00,
2013-09-26 06:52:00,48.0,36.0,29.76,West,268,19.0,31.0,64,0.00,,,0.00,0.000000,,2013-09-26 13:52:00,
2013-09-26 07:22:00,48.0,36.0,29.79,West,280,18.0,29.0,64,0.00,,,0.00,1.000000,,2013-09-26 14:22:00,
2013-09-26 07:32:00,48.0,36.0,29.79,West,280,18.0,29.0,64,0.00,,,0.00,1.000000,,2013-09-26 14:32:00,
2013-09-26 07:42:00,48.0,36.0,29.79,West,280,18.0,29.0,64,0.00,,,0.00,1.000000,,2013-09-26 14:42:00,
2013-09-26 07:52:00,48.0,36.0,29.79,West,280,18.0,29.0,64,0.00,,,0.00,1.000000,,2013-09-26 14:52:00,
2013-09-26 08:22:00,50.0,36.0,29.80,West,281,25.0,29.0,58,0.00,,,0.00,99.000000,,2013-09-26 15:22:00,
2013-09-26 08:33:00,50.0,36.0,29.80,West,281,25.0,29.0,58,0.00,,,0.00,99.000000,,2013-09-26 15:33:00,
2013-09-26 08:44:00,50.0,36.0,29.80,West,281,25.0,29.0,58,0.00,,,0.00,99.000000,,2013-09-26 15:44:00,
2013-09-26 08:53:00,50.0,36.0,29.80,West,281,25.0,29.0,58,0.00,,,0.00,99.000000,,2013-09-26 15:53:00,
2013-09-26 09:24:00,53.0,38.0,29.82,West,277,29.0,37.0,57,0.00,,,0.00,340.000000,,2013-09-26 16:24:00,
2013-09-26 09:33:00,53.0,38.0,29.82,West,277,29.0,37.0,57,0.00,,,0.00,340.000000,,2013-09-26 16:33:00,
2013-09-26 09:43:00,53.0,38.0,29.82,West,277,29.0,37.0,57,0.00,,,0.00,340.000000,,2013-09-26 16:43:00,
2013-09-26 09:53:00,53.0,38.0,29.82,West,277,29.0,37.0,57,0.00,,,0.00,340.000000,,2013-09-26 16:53:00,
2013-09-26 10:23:00,55.0,37.0,29.83,West,277,30.0,41.0,51,0.00,,,0.00,570.000000,,2013-09-26 17:23:00,
2013-09-26 10:34:00,55.0,37.0,29.83,West,277,30.0,41.0,51,0.00,,,0.00,570.000000,,2013-09-26 17:34:00,
2013-09-26 10:43:00,55.0,37.0,29.83,West,277,30.0,41.0,51,0.00,,,0.00,570.000000,,2013-09-26 17:43:00,
2013-09-26 10:52:00,55.0,37.0,29.83,West,277,30.0,41.0,51,0.00,,,0.00,570.000000,,2013-09-26 17:52:00,
2013-09-26 11:22:00,58.0,35.0,29.84,West,280,29.0,42.0,42,0.00,,,0.00,761.000000,,2013-09-26 18:22:00,
2013-09-26 11:32:00,58.0,35.0,29.84,West,280,29.0,42.0,42,0.00,,,0.00,761.000000,,2013-09-26 18:32:00,
2013-09-26 11:42:00,58.0,35.0,29.84,West,280,29.0,42.0,42,0.00,,,0.00,761.000000,,2013-09-26 18:42:00,
2013-09-26 11:52:00,58.0,35.0,29.84,West,280,29.0,42.0,42,0.00,,,0.00,761.000000,,2013-09-26 18:52:00,
2013-09-26 12:22:00,61.0,32.0,29.86,West,273,20.0,42.0,34,0.00,,,0.00,895.000000,,2013-09-26 19:22:00,
2013-09-26 12:32:00,61.0,32.0,29.86,West,273,20.0,42.0,34,0.00,,,0.00,895.000000,,2013-09-26 19:32:00,
2013-09-26 12:43:00,61.0,32.0,29.86,West,273,20.0,42.0,34,0.00,,,0.00,895.000000,,2013-09-26 19:43:00,
2013-09-26 12:52:00,61.0,32.0,29.86,West,273,20.0,42.0,34,0.00,,,0.00,895.000000,,2013-09-26 19:52:00,
2013-09-26 13:22:00,63.0,26.0,29.83,West,280,22.0,34.0,24,0.00,,,0.00,961.000000,,2013-09-26 20:22:00,
2013-09-26 13:32:00,63.0,26.0,29.83,West,280,22.0,34.0,24,0.00,,,0.00,961.000000,,2013-09-26 20:32:00,
2013-09-26 13:42:00,63.0,26.0,29.83,West,280,22.0,34.0,24,0.00,,,0.00,961.000000,,2013-09-26 20:42:00,
2013-09-26 13:52:00,63.0,26.0,29.83,West,280,22.0,34.0,24,0.00,,,0.00,961.000000,,2013-09-26 20:52:00,
2013-09-26 14:23:00,66.0,23.0,29.85,West,275,20.0,36.0,19,0.00,,,0.00,947.000000,,2013-09-26 21:23:00,
2013-09-26 14:34:00,66.0,23.0,29.85,West,275,20.0,36.0,19,0.00,,,0.00,947.000000,,2013-09-26 21:34:00,
2013-09-26 14:44:00,66.0,23.0,29.85,West,275,20.0,36.0,19,0.00,,,0.00,947.000000,,2013-09-26 21:44:00,
2013-09-26 14:54:00,66.0,23.0,29.85,West,275,20.0,36.0,19,0.00,,,0.00,947.000000,,2013-09-26 21:54:00,
2013-09-26 15:24:00,64.0,24.0,29.85,WNW,301,26.0,37.0,22,0.00,,,0.00,866.000000,,2013-09-26 22:24:00,
2013-09-26 15:32:00,64.0,24.0,29.85,WNW,301,26.0,37.0,22,0.00,,,0.00,866.000000,,2013-09-26 22:32:00,
2013-09-26 15:42:00,64.0,24.0,29.85,WNW,301,26.0,37.0,22,0.00,,,0.00,866.000000,,2013-09-26 22:42:00,
2013-09-26 15:54:00,64.0,24.0,29.85,WNW,301,26.0,37.0,22,0.00,,,0.00,866.000000,,2013-09-26 22:54:00,
2013-09-26 16:23:00,62.0,29.0,29.87,WNW,285,22.0,39.0,28,0.00,,,0.00,718.000000,,2013-09-26 23:23:00,
2013-09-26 16:34:00,62.0,29.0,29.87,WNW,285,22.0,39.0,28,0.00,,,0.00,718.000000,,2013-09-26 23:34:00,
2013-09-26 16:42:00,62.0,29.0,29.87,WNW,285,22.0,39.0,28,0.00,,,0.00,718.000000,,2013-09-26 23:42:00,
2013-09-26 16:53:00,62.0,29.0,29.87,WNW,285,22.0,39.0,28,0.00,,,0.00,718.000000,,2013-09-26 23:53:00,
2013-09-26 17:22:00,62.0,30.0,29.86,WNW,282,22.0,35.0,30,0.00,,,0.00,511.000000,,2013-09-27 00:22:00,
2013-09-26 17:32:00,62.0,30.0,29.86,WNW,282,22.0,35.0,30,0.00,,,0.00,511.000000,,2013-09-27 00:32:00,
2013-09-26 17:43:00,62.0,30.0,29.86,WNW,282,22.0,35.0,30,0.00,,,0.00,511.000000,,2013-09-27 00:43:00,
2013-09-26 17:52:00,62.0,30.0,29.86,WNW,282,22.0,35.0,30,0.00,,,0.00,511.000000,,2013-09-27 00:52:00,
2013-09-26 18:23:00,59.0,29.0,29.88,WNW,292,17.0,36.0,32,0.00,,,0.00,271.000000,,2013-09-27 01:23:00,
2013-09-26 18:32:00,59.0,29.0,29.88,WNW,292,17.0,36.0,32,0.00,,,0.00,271.000000,,2013-09-27 01:32:00,
2013-09-26 18:42:00,59.0,29.0,29.88,WNW,292,17.0,36.0,32,0.00,,,0.00,271.000000,,2013-09-27 01:42:00,
2013-09-26 18:52:00,59.0,29.0,29.88,WNW,292,17.0,36.0,32,0.00,,,0.00,271.000000,,2013-09-27 01:52:00,
2013-09-26 19:22:00,55.0,29.0,29.91,NW,318,5.0,28.0,37,0.00,,,0.00,27.000000,,2013-09-27 02:22:00,
2013-09-26 19:32:00,55.0,29.0,29.91,NW,318,5.0,28.0,37,0.00,,,0.00,27.000000,,2013-09-27 02:32:00,
2013-09-26 19:42:00,55.0,29.0,29.91,NW,318,5.0,28.0,37,0.00,,,0.00,27.000000,,2013-09-27 02:42:00,
2013-09-26 19:53:00,55.0,29.0,29.91,NW,318,5.0,28.0,37,0.00,,,0.00,27.000000,,2013-09-27 02:53:00,
2013-09-26 20:22:00,56.0,31.0,29.93,NE,48,6.0,22.0,39,0.00,,,0.00,0.000000,,2013-09-27 03:22:00,
2013-09-26 20:34:00,56.0,31.0,29.93,NE,48,6.0,22.0,39,0.00,,,0.00,0.000000,,2013-09-27 03:34:00,
2013-09-26 20:44:00,56.0,31.0,29.93,NE,48,6.0,22.0,39,0.00,,,0.00,0.000000,,2013-09-27 03:44:00,
2013-09-26 20:55:00,56.0,31.0,29.93,NE,48,6.0,22.0,39,0.00,,,0.00,0.000000,,2013-09-27 03:55:00,
2013-09-26 21:24:00,55.0,31.0,29.92,WNW,285,19.0,19.0,39,0.00,,,0.00,0.000000,,2013-09-27 04:24:00,
2013-09-26 21:33:00,55.0,31.0,29.92,WNW,285,19.0,19.0,39,0.00,,,0.00,0.000000,,2013-09-27 04:33:00,
2013-09-26 21:44:00,55.0,31.0,29.92,WNW,285,19.0,19.0,39,0.00,,,0.00,0.000000,,2013-09-27 04:44:00,
2013-09-26 21:54:00,55.0,31.0,29.92,WNW,285,19.0,19.0,39,0.00,,,0.00,0.000000,,2013-09-27 04:54:00,
2013-09-26 22:23:00,54.0,28.0,29.94,WNW,282,22.0,31.0,37,0.00,,,0.00,0.000000,,2013-09-27 05:23:00,
2013-09-26 22:34:00,54.0,28.0,29.94,WNW,282,22.0,31.0,37,0.00,,,0.00,0.000000,,2013-09-27 05:34:00,
2013-09-26 22:43:00,54.0,28.0,29.94,WNW,282,22.0,31.0,37,0.00,,,0.00,0.000000,,2013-09-27 05:43:00,
2013-09-26 22:52:00,54.0,28.0,29.94,WNW,282,22.0,31.0,37,0.00,,,0.00,0.000000,,2013-09-27 05:52:00,
2013-09-26 23:22:00,56.0,29.0,29.94,West,279,22.0,33.0,36,0.00,,,0.00,0.000000,,2013-09-27 06:22:00,
2013-09-26 23:32:00,56.0,29.0,29.94,West,279,22.0,33.0,36,0.00,,,0.00,0.000000,,2013-09-27 06:32:00,
2013-09-26 23:42:00,56.0,29.0,29.94,West,279,22.0,33.0,36,0.00,,,0.00,0.000000,,2013-09-27 06:42:00,
2013-09-26 23:52:00,56.0,29.0,29.94,West,279,22.0,33.0,36,0.00,,,0.00,0.000000,,2013-09-27 06:52:00,